createdAt,value
2023-05-09T00:00:32.029Z,18.54
2023-05-09T00:03:33.551Z,18.55
2023-05-09T00:06:35.323Z,18.53
2023-05-09T00:09:36.848Z,18.53
2023-05-09T00:12:38.307Z,18.52
2023-05-09T00:15:39.839Z,18.52
2023-05-09T00:18:42.273Z,18.52
2023-05-09T00:21:43.811Z,18.50
2023-05-09T00:24:45.366Z,18.50
2023-05-09T00:27:47.011Z,18.51
2023-05-09T00:30:48.527Z,18.50
2023-05-09T00:33:50.313Z,18.49
2023-05-09T00:36:51.791Z,18.48
2023-05-09T00:39:53.283Z,18.49
2023-05-09T00:42:58.156Z,18.49
2023-05-09T00:45:59.819Z,18.47
2023-05-09T00:49:01.567Z,18.47
2023-05-09T00:52:04.884Z,18.48
2023-05-09T00:55:08.300Z,18.47
2023-05-09T00:58:10.966Z,18.46
2023-05-09T01:01:12.683Z,18.46
2023-05-09T01:04:15.098Z,18.45
2023-05-09T01:07:19.568Z,18.44
2023-05-09T01:10:22.026Z,18.45
2023-05-09T01:13:46.839Z,18.45
2023-05-09T01:17:02.648Z,18.46
2023-05-09T01:20:35.665Z,18.45
2023-05-09T01:23:46.617Z,18.45
2023-05-09T01:27:12.707Z,18.45
2023-05-09T01:30:16.786Z,18.45
2023-05-09T01:33:20.261Z,18.43
2023-05-09T01:36:23.271Z,18.44
2023-05-09T01:39:26.789Z,18.45
2023-05-09T01:42:36.552Z,18.46
2023-05-09T01:45:40.526Z,18.44
2023-05-09T01:48:42.835Z,18.45
2023-05-09T01:51:45.079Z,18.45
2023-05-09T01:54:48.347Z,18.46
2023-05-09T01:57:50.328Z,18.45
2023-05-09T02:00:52.966Z,18.46
2023-05-09T02:03:56.101Z,18.47
2023-05-09T02:06:58.785Z,18.47
2023-05-09T02:10:00.810Z,18.46
2023-05-09T02:13:02.330Z,18.46
2023-05-09T02:16:05.840Z,18.46
2023-05-09T02:19:07.559Z,18.45
2023-05-09T02:22:09.468Z,18.46
2023-05-09T02:25:15.271Z,18.47
2023-05-09T02:28:19.476Z,18.47
2023-05-09T02:31:24.054Z,18.48
2023-05-09T02:34:25.802Z,18.46
2023-05-09T02:37:28.562Z,18.47
2023-05-09T02:40:31.057Z,18.48
2023-05-09T02:43:32.564Z,18.47
2023-05-09T02:46:34.209Z,18.47
2023-05-09T02:49:35.852Z,18.46
2023-05-09T02:52:39.112Z,18.47
2023-05-09T02:55:40.610Z,18.46
2023-05-09T02:58:42.173Z,18.47
2023-05-09T03:01:43.722Z,18.47
2023-05-09T03:04:45.548Z,18.48
2023-05-09T03:07:47.391Z,18.49
2023-05-09T03:10:48.901Z,18.50
2023-05-09T03:13:51.167Z,18.49
2023-05-09T03:16:52.731Z,18.52
2023-05-09T03:20:01.703Z,18.52
2023-05-09T03:23:05.515Z,18.53
2023-05-09T03:26:06.975Z,18.54
2023-05-09T03:29:08.651Z,18.55
2023-05-09T03:32:10.646Z,18.58
2023-05-09T03:35:12.384Z,18.59
2023-05-09T03:38:13.981Z,18.59
2023-05-09T03:41:17.613Z,18.60
2023-05-09T03:44:21.366Z,18.60
2023-05-09T03:47:22.906Z,18.59
2023-05-09T03:50:24.569Z,18.59
2023-05-09T03:53:28.237Z,18.61
2023-05-09T03:56:30.054Z,18.61
2023-05-09T03:59:31.759Z,18.60
2023-05-09T04:02:34.486Z,18.61
2023-05-09T04:05:36.387Z,18.62
2023-05-09T04:08:39.689Z,18.60
2023-05-09T04:11:42.222Z,18.61
2023-05-09T04:14:48.946Z,18.61
2023-05-09T04:17:51.442Z,18.62
2023-05-09T04:20:53.456Z,18.61
2023-05-09T04:23:55.699Z,18.61
2023-05-09T04:27:04.796Z,18.61
2023-05-09T04:30:06.941Z,18.62
2023-05-09T04:33:09.513Z,18.61
2023-05-09T04:36:11.275Z,18.60
2023-05-09T04:39:13.785Z,18.61
2023-05-09T04:42:24.275Z,18.61
2023-05-09T04:45:26.638Z,18.60
2023-05-09T04:48:28.993Z,18.62
2023-05-09T04:51:30.533Z,18.61
2023-05-09T04:54:32.008Z,18.60
2023-05-09T04:57:33.756Z,18.62
2023-05-09T05:00:36.493Z,18.61
2023-05-09T05:03:38.681Z,18.62
2023-05-09T05:06:40.873Z,18.62
2023-05-09T05:09:43.004Z,18.62
2023-05-09T05:12:44.846Z,18.61
2023-05-09T05:15:48.352Z,18.61
2023-05-09T05:18:50.221Z,18.60
2023-05-09T05:21:53.733Z,18.60
2023-05-09T05:24:55.396Z,18.60
2023-05-09T05:27:57.406Z,18.59
2023-05-09T05:30:58.911Z,18.59
2023-05-09T05:34:00.966Z,18.58
2023-05-09T05:37:27.921Z,18.58
2023-05-09T05:40:29.606Z,18.58
2023-05-09T05:43:32.860Z,18.58
2023-05-09T05:46:35.141Z,18.58
2023-05-09T05:49:37.180Z,18.57
2023-05-09T05:52:39.856Z,18.58
2023-05-09T05:55:45.785Z,18.57
2023-05-09T05:58:47.353Z,18.57
2023-05-09T06:01:49.148Z,18.57
2023-05-09T06:04:50.711Z,18.56
2023-05-09T06:07:53.073Z,18.54
2023-05-09T06:10:55.194Z,18.56
2023-05-09T06:13:56.755Z,18.54
2023-05-09T06:16:59.453Z,18.55
2023-05-09T06:20:01.146Z,18.54
2023-05-09T06:23:02.736Z,18.54
2023-05-09T06:26:04.458Z,18.53
2023-05-09T06:29:06.502Z,18.53
2023-05-09T06:32:08.164Z,18.54
2023-05-09T06:35:09.734Z,18.52
2023-05-09T06:38:11.262Z,18.52
2023-05-09T06:41:12.856Z,18.53
2023-05-09T06:44:14.368Z,18.52
2023-05-09T06:47:16.052Z,18.52
2023-05-09T06:50:17.564Z,18.51
2023-05-09T06:53:19.053Z,18.51
2023-05-09T06:56:22.709Z,18.51
2023-05-09T06:59:24.363Z,18.51
2023-05-09T07:02:25.960Z,18.51
2023-05-09T07:05:27.656Z,18.50
2023-05-09T07:08:29.197Z,18.49
2023-05-09T07:11:37.039Z,18.51
2023-05-09T07:14:38.582Z,18.49
2023-05-09T07:17:40.301Z,18.49
2023-05-09T07:20:41.899Z,18.50
2023-05-09T07:23:43.375Z,18.49
2023-05-09T07:26:44.861Z,18.49
2023-05-09T07:29:46.388Z,18.49
2023-05-09T07:32:47.880Z,18.50
2023-05-09T07:35:49.614Z,18.50
2023-05-09T07:38:53.454Z,18.51
2023-05-09T07:41:54.917Z,18.50
2023-05-09T07:44:56.630Z,18.50
2023-05-09T07:47:58.193Z,18.50
2023-05-09T07:50:59.746Z,18.50
2023-05-09T07:54:01.289Z,18.50
2023-05-09T07:57:02.862Z,18.49
2023-05-09T08:00:06.320Z,18.49
2023-05-09T08:03:15.025Z,18.48
2023-05-09T08:06:16.818Z,18.49
2023-05-09T08:09:18.631Z,18.48
2023-05-09T08:12:20.198Z,18.49
2023-05-09T08:15:21.792Z,18.47
2023-05-09T08:18:23.311Z,18.47
2023-05-09T08:21:25.055Z,18.47
2023-05-09T08:24:26.648Z,18.47
2023-05-09T08:27:28.126Z,18.47
2023-05-09T08:30:29.758Z,18.46
2023-05-09T08:33:31.611Z,18.46
2023-05-09T08:36:33.769Z,18.47
2023-05-09T08:39:35.220Z,18.47
2023-05-09T08:42:38.276Z,18.47
2023-05-09T08:45:58.925Z,18.47
2023-05-09T08:49:00.958Z,18.46
2023-05-09T08:52:02.910Z,18.46
2023-05-09T08:55:04.990Z,18.46
2023-05-09T08:58:07.098Z,18.47
2023-05-09T09:01:09.482Z,18.48
2023-05-09T09:04:13.680Z,18.47
2023-05-09T09:07:16.498Z,18.48
2023-05-09T09:10:20.804Z,18.49
2023-05-09T09:13:23.213Z,18.49
2023-05-09T09:16:26.603Z,18.50
2023-05-09T09:19:31.421Z,18.50
2023-05-09T09:22:34.810Z,18.51
2023-05-09T09:25:36.718Z,18.50
2023-05-09T09:28:38.296Z,18.51
2023-05-09T09:31:44.676Z,18.52
2023-05-09T09:34:49.649Z,18.52
2023-05-09T09:37:58.496Z,18.53
2023-05-09T09:41:01.252Z,18.51
2023-05-09T09:44:12.385Z,18.53
2023-05-09T09:47:13.892Z,18.51
2023-05-09T09:50:20.121Z,18.54
2023-05-09T09:53:21.896Z,18.52
2023-05-09T09:56:39.137Z,18.54
2023-05-09T09:59:40.712Z,18.53
2023-05-09T10:02:50.434Z,18.55
2023-05-09T10:06:01.851Z,18.56
2023-05-09T10:09:03.434Z,18.54
2023-05-09T10:12:06.803Z,18.57
2023-05-09T10:15:09.508Z,18.56
2023-05-09T10:18:14.634Z,18.58
2023-05-09T10:21:16.286Z,18.57
2023-05-09T10:24:27.389Z,18.58
2023-05-09T10:27:32.125Z,18.59
2023-05-09T10:30:41.162Z,18.60
2023-05-09T10:33:49.237Z,18.61
2023-05-09T10:36:50.885Z,18.61
2023-05-09T10:39:53.670Z,18.62
2023-05-09T10:42:55.205Z,18.65
2023-05-09T10:45:56.847Z,18.68
2023-05-09T10:48:59.003Z,18.69
2023-05-09T10:52:00.523Z,18.71
2023-05-09T10:55:05.031Z,18.72
2023-05-09T10:58:37.279Z,18.75
2023-05-09T11:01:39.538Z,18.74
2023-05-09T11:04:41.492Z,18.74
2023-05-09T11:07:43.405Z,18.73
2023-05-09T11:10:45.068Z,18.74
2023-05-09T11:13:46.537Z,18.74
2023-05-09T11:16:59.553Z,18.76
2023-05-09T11:20:05.661Z,18.75
2023-05-09T11:23:08.784Z,18.75
2023-05-09T11:26:10.386Z,18.74
2023-05-09T11:29:12.264Z,18.75
2023-05-09T11:32:15.313Z,18.75
2023-05-09T11:35:21.509Z,18.76
2023-05-09T11:38:23.040Z,18.74
2023-05-09T11:41:24.620Z,18.75
2023-05-09T11:44:27.970Z,18.76
2023-05-09T11:47:30.758Z,18.76
2023-05-09T11:50:32.318Z,18.77
2023-05-09T11:53:34.109Z,18.77
2023-05-09T11:56:37.988Z,18.78
2023-05-09T11:59:39.585Z,18.77
2023-05-09T12:02:44.574Z,18.79
2023-05-09T12:05:48.403Z,18.80
2023-05-09T12:08:50.481Z,18.79
2023-05-09T12:11:52.165Z,18.82
2023-05-09T12:14:53.694Z,18.82
2023-05-09T12:18:06.538Z,18.86
2023-05-09T12:21:08.083Z,18.85
2023-05-09T12:24:09.887Z,18.85
2023-05-09T12:27:11.670Z,18.88
2023-05-09T12:30:16.087Z,18.89
2023-05-09T12:33:18.606Z,18.89
2023-05-09T12:36:20.122Z,18.90
2023-05-09T12:39:22.885Z,18.92
2023-05-09T12:42:27.606Z,18.95
2023-05-09T12:45:32.780Z,18.94
2023-05-09T12:48:38.811Z,18.96
2023-05-09T12:51:49.326Z,18.98
2023-05-09T12:54:52.600Z,18.98
2023-05-09T12:58:02.571Z,18.99
2023-05-09T13:01:05.080Z,19.00
2023-05-09T13:04:07.489Z,19.00
2023-05-09T13:07:13.037Z,19.01
2023-05-09T13:10:21.463Z,19.02
2023-05-09T13:13:26.627Z,19.03
2023-05-09T13:16:28.780Z,19.04
2023-05-09T13:19:30.295Z,19.04
2023-05-09T13:22:32.301Z,19.05
2023-05-09T13:25:33.819Z,19.05
2023-05-09T13:28:36.314Z,19.06
2023-05-09T13:31:37.963Z,19.05
2023-05-09T13:34:39.462Z,19.07
2023-05-09T13:37:40.999Z,19.06
2023-05-09T13:40:42.471Z,19.08
2023-05-09T13:43:43.947Z,19.08
2023-05-09T13:46:45.867Z,19.09
2023-05-09T13:49:47.404Z,19.10
2023-05-09T13:52:49.893Z,19.10
2023-05-09T13:55:51.386Z,19.12
2023-05-09T13:58:52.921Z,19.12
2023-05-09T14:01:57.323Z,19.13
2023-05-09T14:04:58.966Z,19.14
2023-05-09T14:08:01.509Z,19.15
2023-05-09T14:11:03.028Z,19.17
2023-05-09T14:14:04.492Z,19.18
2023-05-09T14:17:05.918Z,19.18
2023-05-09T14:20:08.132Z,19.18
2023-05-09T14:23:09.633Z,19.16
2023-05-09T14:26:11.147Z,19.16
2023-05-09T14:29:12.887Z,19.17
2023-05-09T14:32:14.532Z,19.16
2023-05-09T14:35:16.137Z,19.16
2023-05-09T14:38:17.936Z,19.17
2023-05-09T14:41:21.422Z,19.17
2023-05-09T14:44:24.903Z,19.15
2023-05-09T14:47:26.446Z,19.14
2023-05-09T14:50:28.070Z,19.14
2023-05-09T14:53:30.061Z,19.14
2023-05-09T14:56:31.572Z,19.13
2023-05-09T14:59:34.808Z,19.11
2023-05-09T15:02:39.383Z,19.13
2023-05-09T15:05:41.711Z,19.12
2023-05-09T15:08:43.266Z,19.11
2023-05-09T15:11:48.878Z,19.11
2023-05-09T15:14:53.786Z,19.09
2023-05-09T15:17:55.427Z,19.09
2023-05-09T15:20:57.359Z,19.08
2023-05-09T15:23:59.313Z,19.07
2023-05-09T15:27:00.816Z,19.08
2023-05-09T15:30:02.407Z,19.08
2023-05-09T15:33:03.986Z,19.08
2023-05-09T15:36:06.734Z,19.07
2023-05-09T15:39:08.486Z,19.07
2023-05-09T15:42:12.180Z,19.08
2023-05-09T15:45:13.712Z,19.07
2023-05-09T15:48:16.237Z,19.08
2023-05-09T15:51:17.712Z,19.07
2023-05-09T15:54:20.194Z,19.08
2023-05-09T15:57:21.966Z,19.08
2023-05-09T16:00:23.548Z,19.09
2023-05-09T16:03:25.323Z,19.09
2023-05-09T16:06:27.272Z,19.09
2023-05-09T16:09:28.763Z,19.11
2023-05-09T16:12:32.704Z,19.12
2023-05-09T16:15:35.036Z,19.13
2023-05-09T16:18:36.487Z,19.11
2023-05-09T16:21:39.181Z,19.11
2023-05-09T16:24:40.772Z,19.10
2023-05-09T16:27:42.281Z,19.09
2023-05-09T16:30:43.773Z,19.09
2023-05-09T16:33:46.906Z,19.09
2023-05-09T16:36:48.517Z,19.08
2023-05-09T16:39:50.078Z,19.08
2023-05-09T16:42:51.612Z,19.09
2023-05-09T16:45:53.152Z,19.08
2023-05-09T16:48:55.750Z,19.08
2023-05-09T16:51:57.332Z,19.08
2023-05-09T16:54:59.345Z,19.08
2023-05-09T16:58:01.164Z,19.08
2023-05-09T17:01:02.751Z,19.08
2023-05-09T17:04:06.605Z,19.08
2023-05-09T17:07:08.648Z,19.08
2023-05-09T17:10:10.977Z,19.10
2023-05-09T17:13:12.713Z,19.11
2023-05-09T17:16:14.513Z,19.12
2023-05-09T17:19:16.535Z,19.13
2023-05-09T17:22:18.008Z,19.14
2023-05-09T17:25:19.508Z,19.16
2023-05-09T17:28:21.103Z,19.17
2023-05-09T17:31:22.728Z,19.19
2023-05-09T17:34:24.345Z,19.20
2023-05-09T17:37:25.843Z,19.22
2023-05-09T17:40:27.298Z,19.24
2023-05-09T17:43:28.989Z,19.25
2023-05-09T17:46:32.578Z,19.27
2023-05-09T17:49:34.070Z,19.28
2023-05-09T17:52:36.397Z,19.29
2023-05-09T17:55:37.913Z,19.28
2023-05-09T17:58:39.412Z,19.29
2023-05-09T18:01:41.205Z,19.29
2023-05-09T18:04:44.544Z,19.28
2023-05-09T18:07:46.021Z,19.28
2023-05-09T18:10:47.503Z,19.29
2023-05-09T18:13:48.993Z,19.28
2023-05-09T18:16:50.704Z,19.29
2023-05-09T18:19:52.193Z,19.28
2023-05-09T18:22:54.315Z,19.30
2023-05-09T18:25:56.038Z,19.30
2023-05-09T18:28:57.846Z,19.30
2023-05-09T18:31:59.337Z,19.31
2023-05-09T18:35:00.900Z,19.35
2023-05-09T18:38:02.402Z,19.32
2023-05-09T18:41:06.044Z,19.35
2023-05-09T18:44:08.490Z,19.34
2023-05-09T18:47:10.173Z,19.33
2023-05-09T18:50:13.545Z,19.36
2023-05-09T18:53:15.221Z,19.36
2023-05-09T18:56:18.943Z,19.39
2023-05-09T18:59:20.593Z,19.40
2023-05-09T19:02:23.402Z,19.41
2023-05-09T19:05:25.886Z,19.43
2023-05-09T19:08:27.910Z,19.44
2023-05-09T19:11:29.476Z,19.46
2023-05-09T19:14:31.177Z,19.47
2023-05-09T19:17:32.752Z,19.48
2023-05-09T19:20:34.261Z,19.50
2023-05-09T19:23:35.821Z,19.49
2023-05-09T19:26:37.382Z,19.51
2023-05-09T19:29:38.915Z,19.51
2023-05-09T19:32:41.816Z,19.53
2023-05-09T19:35:43.699Z,19.54
2023-05-09T19:38:45.442Z,19.54
2023-05-09T19:41:46.936Z,19.55
2023-05-09T19:44:48.525Z,19.56
2023-05-09T19:47:50.084Z,19.57
2023-05-09T19:50:56.765Z,19.59
2023-05-09T19:53:58.261Z,19.58
2023-05-09T19:56:59.736Z,19.58
2023-05-09T20:00:01.423Z,19.60
2023-05-09T20:03:04.205Z,19.60
2023-05-09T20:06:05.914Z,19.59
2023-05-09T20:09:07.523Z,19.62
2023-05-09T20:12:09.626Z,19.62
2023-05-09T20:15:11.998Z,19.63
2023-05-09T20:18:16.119Z,19.62
2023-05-09T20:21:17.609Z,19.63
2023-05-09T20:24:19.725Z,19.64
2023-05-09T20:27:21.936Z,19.64
2023-05-09T20:30:23.410Z,19.63
2023-05-09T20:33:24.878Z,19.64
2023-05-09T20:36:27.983Z,19.63
2023-05-09T20:39:29.484Z,19.63
2023-05-09T20:42:30.946Z,19.62
2023-05-09T20:45:32.612Z,19.62
2023-05-09T20:48:34.221Z,19.62
2023-05-09T20:51:35.777Z,19.61
2023-05-09T20:54:37.590Z,19.60
2023-05-09T20:57:39.092Z,19.60
2023-05-09T21:00:40.899Z,19.60
2023-05-09T21:03:42.342Z,19.60
2023-05-09T21:06:43.773Z,19.59
2023-05-09T21:09:47.450Z,19.60
2023-05-09T21:12:48.956Z,19.59
2023-05-09T21:15:50.868Z,19.58
2023-05-09T21:18:52.358Z,19.57
2023-05-09T21:21:54.977Z,19.58
2023-05-09T21:24:56.402Z,19.57
2023-05-09T21:27:57.854Z,19.57
2023-05-09T21:31:01.459Z,19.55
2023-05-09T21:34:09.446Z,19.55
2023-05-09T21:37:10.958Z,19.54
2023-05-09T21:40:12.979Z,19.53
2023-05-09T21:43:15.366Z,19.54
2023-05-09T21:46:16.876Z,19.52
2023-05-09T21:49:18.374Z,19.51
2023-05-09T21:52:19.918Z,19.51
2023-05-09T21:55:21.695Z,19.51
2023-05-09T21:58:23.222Z,19.50
2023-05-09T22:01:24.753Z,19.49
2023-05-09T22:04:26.300Z,19.48
2023-05-09T22:07:27.813Z,19.47
2023-05-09T22:10:29.354Z,19.47
2023-05-09T22:13:31.032Z,19.47
2023-05-09T22:16:32.755Z,19.46
2023-05-09T22:19:34.213Z,19.45
2023-05-09T22:22:35.688Z,19.43
2023-05-09T22:25:38.227Z,19.44
2023-05-09T22:28:39.657Z,19.43
2023-05-09T22:31:41.334Z,19.43
2023-05-09T22:34:42.785Z,19.42
2023-05-09T22:37:44.228Z,19.42
2023-05-09T22:40:45.903Z,19.41
2023-05-09T22:43:47.406Z,19.41
2023-05-09T22:46:48.869Z,19.40
2023-05-09T22:49:50.553Z,19.41
2023-05-09T22:52:52.055Z,19.39
2023-05-09T22:55:54.674Z,19.39
2023-05-09T22:58:56.255Z,19.38
2023-05-09T23:01:58.685Z,19.38
2023-05-09T23:05:00.167Z,19.37
2023-05-09T23:08:01.660Z,19.37
2023-05-09T23:11:04.286Z,19.38
2023-05-09T23:14:06.374Z,19.38
2023-05-09T23:17:07.857Z,19.37
2023-05-09T23:20:09.732Z,19.36
2023-05-09T23:23:11.248Z,19.35
2023-05-09T23:26:12.717Z,19.34
2023-05-09T23:29:14.937Z,19.34
2023-05-09T23:32:16.415Z,19.35
2023-05-09T23:35:19.085Z,19.32
2023-05-09T23:38:20.634Z,19.32
2023-05-09T23:41:22.415Z,19.32
2023-05-09T23:44:23.951Z,19.32
2023-05-09T23:47:25.449Z,19.32
2023-05-09T23:50:26.930Z,19.31
2023-05-09T23:53:28.482Z,19.30
2023-05-09T23:56:30.566Z,19.29
2023-05-09T23:59:32.078Z,19.28
